createdAt,value
2019-04-06T00:01:02.932Z,9.22
2019-04-06T00:03:31.911Z,9.13
2019-04-06T00:06:00.916Z,9.13
2019-04-06T00:08:29.805Z,9.31
2019-04-06T00:10:59.004Z,9.32
2019-04-06T00:13:27.994Z,9.19
2019-04-06T00:15:56.633Z,9.11
2019-04-06T00:18:25.586Z,9.21
2019-04-06T00:20:54.768Z,9.35
2019-04-06T00:23:23.622Z,9.49
2019-04-06T00:25:52.539Z,9.51
2019-04-06T00:28:21.439Z,9.48
2019-04-06T00:31:09.092Z,9.43
2019-04-06T00:33:38.063Z,9.39
2019-04-06T00:36:06.755Z,9.49
2019-04-06T00:38:35.410Z,9.48
2019-04-06T00:41:04.237Z,9.51
2019-04-06T00:43:32.852Z,9.50
2019-04-06T00:46:01.497Z,9.52
2019-04-06T00:48:30.386Z,9.36
2019-04-06T00:50:59.083Z,9.29
2019-04-06T00:53:28.080Z,9.36
2019-04-06T00:55:56.765Z,9.45
2019-04-06T00:58:25.648Z,9.49
2019-04-06T01:00:54.539Z,9.46
2019-04-06T01:03:23.178Z,9.45
2019-04-06T01:05:52.444Z,9.28
2019-04-06T01:08:21.426Z,9.08
2019-04-06T01:10:50.418Z,8.93
2019-04-06T01:13:19.048Z,8.93
2019-04-06T01:15:47.991Z,9.06
2019-04-06T01:18:16.693Z,9.09
2019-04-06T01:20:45.414Z,9.06
2019-04-06T01:23:14.359Z,8.54
2019-04-06T01:25:43.010Z,8.34
2019-04-06T01:28:11.631Z,8.34
2019-04-06T01:30:40.518Z,8.56
2019-04-06T01:33:09.929Z,8.49
2019-04-06T01:35:38.817Z,8.43
2019-04-06T01:38:07.704Z,8.44
2019-04-06T01:40:36.332Z,8.50
2019-04-06T01:43:05.284Z,8.63
2019-04-06T01:45:34.269Z,8.58
2019-04-06T01:48:02.935Z,8.49
2019-04-06T01:50:31.646Z,8.51
2019-04-06T01:53:00.551Z,8.42
2019-04-06T01:55:29.546Z,8.43
2019-04-06T01:57:58.842Z,8.44
2019-04-06T02:00:27.727Z,8.29
2019-04-06T02:02:56.710Z,8.26
2019-04-06T02:05:25.712Z,8.16
2019-04-06T02:07:54.357Z,8.16
2019-04-06T02:10:23.395Z,8.10
2019-04-06T02:12:52.389Z,8.29
2019-04-06T02:15:21.385Z,8.24
2019-04-06T02:17:50.693Z,8.32
2019-04-06T02:20:19.674Z,8.25
2019-04-06T02:22:48.578Z,8.13
2019-04-06T02:25:17.512Z,8.09
2019-04-06T02:27:46.351Z,8.05
2019-04-06T02:30:25.555Z,8.01
2019-04-06T02:33:14.719Z,7.89
2019-04-06T02:36:01.765Z,7.82
2019-04-06T02:38:52.622Z,7.76
2019-04-06T02:41:55.308Z,7.76
2019-04-06T02:44:23.944Z,7.72
2019-04-06T02:46:53.015Z,7.62
2019-04-06T02:49:22.018Z,7.50
2019-04-06T02:51:50.672Z,7.34
2019-04-06T02:54:19.626Z,7.09
2019-04-06T02:56:48.597Z,7.23
2019-04-06T02:59:17.894Z,7.33
2019-04-06T03:01:46.790Z,7.50
2019-04-06T03:04:16.003Z,7.44
2019-04-06T03:06:45.001Z,7.27
2019-04-06T03:09:13.638Z,7.28
2019-04-06T03:11:42.881Z,7.03
2019-04-06T03:14:12.279Z,6.88
2019-04-06T03:16:41.167Z,6.92
2019-04-06T03:19:10.058Z,7.00
2019-04-06T03:21:38.961Z,7.00
2019-04-06T03:24:07.581Z,6.94
2019-04-06T03:26:36.387Z,7.05
2019-04-06T03:29:05.246Z,6.90
2019-04-06T03:31:34.344Z,7.01
2019-04-06T03:34:03.722Z,6.77
2019-04-06T03:36:32.895Z,6.69
2019-04-06T03:39:01.505Z,6.74
2019-04-06T03:41:30.403Z,6.74
2019-04-06T03:43:59.720Z,6.99
2019-04-06T03:46:28.334Z,6.99
2019-04-06T03:48:57.358Z,6.99
2019-04-06T03:51:26.568Z,6.91
2019-04-06T03:53:55.874Z,7.03
2019-04-06T03:56:25.180Z,7.18
2019-04-06T03:58:54.164Z,7.18
2019-04-06T04:01:22.803Z,7.12
2019-04-06T04:03:51.497Z,7.00
2019-04-06T04:06:20.439Z,6.85
2019-04-06T04:08:49.864Z,6.91
2019-04-06T04:11:18.827Z,6.84
2019-04-06T04:13:47.739Z,6.71
2019-04-06T04:16:16.655Z,6.78
2019-04-06T04:18:45.278Z,6.79
2019-04-06T04:21:14.186Z,6.78
2019-04-06T04:23:43.160Z,6.86
2019-04-06T04:26:11.734Z,7.19
2019-04-06T04:28:40.674Z,7.31
2019-04-06T04:31:09.763Z,7.33
2019-04-06T04:33:38.644Z,7.28
2019-04-06T04:36:07.639Z,7.75
2019-04-06T04:38:37.018Z,7.77
2019-04-06T04:41:05.747Z,7.53
2019-04-06T04:43:34.620Z,7.58
2019-04-06T04:46:03.528Z,7.54
2019-04-06T04:48:32.177Z,7.41
2019-04-06T04:51:01.110Z,7.29
2019-04-06T04:53:29.952Z,7.29
2019-04-06T04:55:58.602Z,7.32
2019-04-06T04:58:27.646Z,7.32
2019-04-06T05:00:56.754Z,7.51
2019-04-06T05:03:25.962Z,7.51
2019-04-06T05:05:55.254Z,7.59
2019-04-06T05:08:24.452Z,7.62
2019-04-06T05:10:53.342Z,7.85
2019-04-06T05:13:21.982Z,7.76
2019-04-06T05:16:22.487Z,7.68
2019-04-06T05:18:51.455Z,7.79
2019-04-06T05:21:20.349Z,7.97
2019-04-06T05:23:49.233Z,8.09
2019-04-06T05:26:18.140Z,8.10
2019-04-06T05:28:47.328Z,7.96
2019-04-06T05:31:16.633Z,7.95
2019-04-06T05:33:46.004Z,8.05
2019-04-06T05:36:15.232Z,8.18
2019-04-06T05:38:44.414Z,8.29
2019-04-06T05:41:13.318Z,8.31
2019-04-06T05:43:42.218Z,8.25
2019-04-06T05:46:11.785Z,8.29
2019-04-06T05:48:40.413Z,8.28
2019-04-06T05:51:09.131Z,8.20
2019-04-06T05:53:38.084Z,8.19
2019-04-06T05:56:07.067Z,8.20
2019-04-06T05:58:35.701Z,8.31
2019-04-06T06:01:04.764Z,8.59
2019-04-06T06:03:33.750Z,8.76
2019-04-06T06:06:02.810Z,8.96
2019-04-06T06:08:31.378Z,9.09
2019-04-06T06:11:00.025Z,9.32
2019-04-06T06:13:28.906Z,9.43
2019-04-06T06:15:57.558Z,9.60
2019-04-06T06:18:27.702Z,9.80
2019-04-06T06:20:56.913Z,9.89
2019-04-06T06:23:25.551Z,9.99
2019-04-06T06:25:54.194Z,10.10
2019-04-06T06:28:23.497Z,10.12
2019-04-06T06:30:52.151Z,10.17
2019-04-06T06:33:20.847Z,10.31
2019-04-06T06:35:49.683Z,10.43
2019-04-06T06:38:18.784Z,10.59
2019-04-06T06:40:47.405Z,10.77
2019-04-06T06:43:16.329Z,10.96
2019-04-06T06:45:44.978Z,11.11
2019-04-06T06:48:13.720Z,11.31
2019-04-06T06:50:43.039Z,11.40
2019-04-06T06:53:11.888Z,11.49
2019-04-06T06:55:40.864Z,11.62
2019-04-06T06:58:09.608Z,11.75
2019-04-06T07:00:38.870Z,11.86
2019-04-06T07:03:07.493Z,11.88
2019-04-06T07:05:36.861Z,11.96
2019-04-06T07:08:06.055Z,11.99
2019-04-06T07:10:35.567Z,12.03
2019-04-06T07:13:04.187Z,12.12
2019-04-06T07:15:33.126Z,12.19
2019-04-06T07:18:02.134Z,12.33
2019-04-06T07:20:31.150Z,12.51
2019-04-06T07:22:59.777Z,12.60
2019-04-06T07:25:28.974Z,12.66
2019-04-06T07:27:57.903Z,12.64
2019-04-06T07:30:26.527Z,12.60
2019-04-06T07:32:55.804Z,12.61
2019-04-06T07:35:24.880Z,12.52
2019-04-06T07:37:53.868Z,12.56
2019-04-06T07:40:22.873Z,12.74
2019-04-06T07:42:51.880Z,12.86
2019-04-06T07:45:20.879Z,12.91
2019-04-06T07:47:49.849Z,13.06
2019-04-06T07:50:19.152Z,13.12
2019-04-06T07:52:48.548Z,13.13
2019-04-06T07:55:17.322Z,13.24
2019-04-06T07:57:45.926Z,13.31
2019-04-06T08:00:15.048Z,13.43
2019-04-06T08:02:44.019Z,13.52
2019-04-06T08:05:42.503Z,13.68
2019-04-06T08:08:11.497Z,13.74
2019-04-06T08:10:40.332Z,13.73
2019-04-06T08:13:09.085Z,13.81
2019-04-06T08:15:38.068Z,13.84
2019-04-06T08:18:07.163Z,13.80
2019-04-06T08:20:35.914Z,13.75
2019-04-06T08:23:05.052Z,13.86
2019-04-06T08:25:33.838Z,14.00
2019-04-06T08:28:02.539Z,14.12
2019-04-06T08:30:31.227Z,13.98
2019-04-06T08:33:00.213Z,14.21
2019-04-06T08:35:28.953Z,14.18
2019-04-06T08:37:57.888Z,14.28
2019-04-06T08:40:26.776Z,14.24
2019-04-06T08:42:55.770Z,14.21
2019-04-06T08:45:24.764Z,14.28
2019-04-06T08:47:53.424Z,14.42
2019-04-06T08:50:22.598Z,14.52
2019-04-06T08:52:51.544Z,14.58
2019-04-06T08:55:20.536Z,14.54
2019-04-06T08:57:49.732Z,14.74
2019-04-06T09:00:19.042Z,14.88
2019-04-06T09:02:48.547Z,15.27
2019-04-06T09:05:17.855Z,15.65
2019-04-06T09:07:46.963Z,16.12
2019-04-06T09:10:15.925Z,16.16
2019-04-06T09:12:45.018Z,16.61
2019-04-06T09:15:16.515Z,16.96
2019-04-06T09:17:45.244Z,17.51
2019-04-06T09:20:14.043Z,17.96
2019-04-06T09:23:43.215Z,18.08
2019-04-06T09:26:12.081Z,18.51
2019-04-06T09:28:41.307Z,19.15
2019-04-06T09:31:10.248Z,19.04
2019-04-06T09:33:39.189Z,18.94
2019-04-06T09:36:08.468Z,19.09
2019-04-06T09:38:37.560Z,19.64
2019-04-06T09:41:06.318Z,20.26
2019-04-06T09:43:35.237Z,20.42
2019-04-06T09:46:16.766Z,20.90
2019-04-06T09:49:03.820Z,20.72
2019-04-06T09:51:51.479Z,21.12
2019-04-06T09:54:25.792Z,20.99
2019-04-06T09:58:17.162Z,21.49
2019-04-06T10:01:23.049Z,21.36
2019-04-06T10:04:23.104Z,21.27
2019-04-06T10:07:18.929Z,21.80
2019-04-06T10:10:00.653Z,21.74
2019-04-06T10:13:00.515Z,21.90
2019-04-06T10:15:57.355Z,22.28
2019-04-06T10:18:48.308Z,21.59
2019-04-06T10:21:36.228Z,21.90
2019-04-06T10:24:23.114Z,22.43
2019-04-06T10:27:17.808Z,21.32
2019-04-06T10:30:04.945Z,21.45
2019-04-06T10:32:43.651Z,21.82
2019-04-06T10:35:25.349Z,21.84
2019-04-06T10:38:03.618Z,22.14
2019-04-06T10:44:21.587Z,22.00
2019-04-06T10:47:04.895Z,22.71
2019-04-06T10:50:14.958Z,23.44
2019-04-06T10:53:03.237Z,23.69
2019-04-06T10:55:57.254Z,23.41
2019-04-06T10:58:44.213Z,23.44
2019-04-06T11:01:41.402Z,22.96
2019-04-06T11:04:38.570Z,23.39
2019-04-06T11:07:26.319Z,23.38
2019-04-06T11:10:12.911Z,23.91
2019-04-06T11:12:59.601Z,23.95
2019-04-06T11:16:02.708Z,23.60
2019-04-06T11:18:53.504Z,23.63
2019-04-06T11:21:40.438Z,24.36
2019-04-06T11:24:27.145Z,22.44
2019-04-06T11:27:03.026Z,22.50
2019-04-06T11:29:49.711Z,22.63
2019-04-06T11:32:33.484Z,22.70
2019-04-06T11:35:33.352Z,23.56
2019-04-06T11:38:17.342Z,22.82
2019-04-06T11:40:54.780Z,23.54
2019-04-06T11:43:41.596Z,23.98
2019-04-06T11:46:29.357Z,22.84
2019-04-06T11:49:25.766Z,22.40
2019-04-06T11:52:11.387Z,22.35
2019-04-06T11:54:55.584Z,22.89
2019-04-06T11:57:34.286Z,22.58
2019-04-06T12:00:23.603Z,22.57
2019-04-06T12:02:59.562Z,23.14
2019-04-06T12:05:46.758Z,23.52
2019-04-06T12:08:31.803Z,23.93
2019-04-06T12:11:18.750Z,24.36
2019-04-06T12:13:53.581Z,24.26
2019-04-06T12:16:40.498Z,24.12
2019-04-06T12:19:27.511Z,23.80
2019-04-06T12:22:21.210Z,24.44
2019-04-06T12:25:24.609Z,24.17
2019-04-06T12:28:02.694Z,24.36
2019-04-06T12:30:54.747Z,24.16
2019-04-06T12:33:36.114Z,24.27
2019-04-06T12:36:10.532Z,24.26
2019-04-06T12:38:48.744Z,23.46
2019-04-06T12:41:35.456Z,24.38
2019-04-06T12:44:19.296Z,24.46
2019-04-06T12:47:01.954Z,24.49
2019-04-06T12:49:38.638Z,24.14
2019-04-06T12:52:23.737Z,24.36
2019-04-06T12:55:20.659Z,23.88
2019-04-06T12:57:57.073Z,24.11
2019-04-06T13:00:52.621Z,23.90
2019-04-06T13:03:28.015Z,23.98
2019-04-06T13:06:06.756Z,23.84
2019-04-06T13:08:51.794Z,24.85
2019-04-06T13:11:32.532Z,24.41
2019-04-06T13:14:16.917Z,24.37
2019-04-06T13:16:59.695Z,24.26
2019-04-06T13:19:55.801Z,23.73
2019-04-06T13:22:49.489Z,24.16
2019-04-06T13:25:37.509Z,23.66
2019-04-06T13:28:15.998Z,24.44
2019-04-06T13:31:04.239Z,24.62
2019-04-06T13:33:52.429Z,24.61
2019-04-06T13:36:46.584Z,24.82
2019-04-06T13:39:22.001Z,24.73
2019-04-06T13:42:08.718Z,24.95
2019-04-06T13:44:59.678Z,24.43
2019-04-06T13:47:46.803Z,24.03
2019-04-06T13:50:37.788Z,23.96
2019-04-06T13:53:14.762Z,24.28
2019-04-06T13:56:01.909Z,24.38
2019-04-06T13:58:55.660Z,24.06
2019-04-06T14:01:37.353Z,24.57
2019-04-06T14:04:40.377Z,24.33
2019-04-06T14:07:40.366Z,24.01
2019-04-06T14:10:27.584Z,23.86
2019-04-06T14:13:15.834Z,23.89
2019-04-06T14:16:02.921Z,24.15
2019-04-06T14:18:50.919Z,24.36
2019-04-06T14:21:44.700Z,23.93
2019-04-06T14:24:35.382Z,23.53
2019-04-06T14:27:29.395Z,23.66
2019-04-06T14:30:16.246Z,23.46
2019-04-06T14:33:03.157Z,23.08
2019-04-06T14:35:54.851Z,22.87
2019-04-06T14:39:01.051Z,22.99
2019-04-06T14:41:47.869Z,22.70
2019-04-06T14:44:24.272Z,22.27
2019-04-06T14:47:06.431Z,21.60
2019-04-06T14:49:52.424Z,21.22
2019-04-06T14:52:33.113Z,21.29
2019-04-06T14:55:21.364Z,21.82
2019-04-06T14:58:02.384Z,21.08
2019-04-06T15:00:44.198Z,21.64
2019-04-06T15:03:31.282Z,21.62
2019-04-06T15:06:37.425Z,22.09
2019-04-06T15:09:21.037Z,22.63
2019-04-06T15:12:04.965Z,22.49
2019-04-06T15:14:51.514Z,22.68
2019-04-06T15:17:38.142Z,22.28
2019-04-06T15:20:25.275Z,22.51
2019-04-06T15:23:11.590Z,21.94
2019-04-06T15:25:59.096Z,21.96
2019-04-06T15:28:37.166Z,21.92
2019-04-06T15:31:28.096Z,21.87
2019-04-06T15:34:14.637Z,22.07
2019-04-06T15:37:02.543Z,21.72
2019-04-06T15:39:53.664Z,21.52
2019-04-06T15:42:44.608Z,21.91
2019-04-06T15:45:33.643Z,21.72
2019-04-06T15:48:12.407Z,21.75
2019-04-06T15:51:02.896Z,21.44
2019-04-06T15:54:01.235Z,21.68
2019-04-06T15:56:42.777Z,21.40
2019-04-06T15:59:24.463Z,21.08
2019-04-06T16:02:03.840Z,20.45
2019-04-06T16:04:48.626Z,20.61
2019-04-06T16:07:39.571Z,20.33
2019-04-06T16:10:36.722Z,20.04
2019-04-06T16:13:22.978Z,20.02
2019-04-06T16:16:10.340Z,19.67
2019-04-06T16:18:59.119Z,19.58
2019-04-06T16:21:42.331Z,19.35
2019-04-06T16:24:48.732Z,19.14
2019-04-06T16:27:29.165Z,19.21
2019-04-06T16:30:29.034Z,19.07
2019-04-06T16:33:10.203Z,19.16
2019-04-06T16:35:56.879Z,19.02
2019-04-06T16:38:35.601Z,18.86
2019-04-06T16:41:16.755Z,18.68
2019-04-06T16:43:57.902Z,19.07
2019-04-06T16:46:51.557Z,18.96
2019-04-06T16:49:36.862Z,18.71
2019-04-06T16:52:26.963Z,18.69
2019-04-06T16:55:11.014Z,18.72
2019-04-06T16:57:55.824Z,18.40
2019-04-06T17:00:36.782Z,18.28
2019-04-06T17:03:14.689Z,18.20
2019-04-06T17:06:01.496Z,18.17
2019-04-06T17:08:49.016Z,18.10
2019-04-06T17:11:35.947Z,17.68
2019-04-06T17:14:15.831Z,17.61
2019-04-06T17:17:03.617Z,17.48
2019-04-06T17:19:49.546Z,17.42
2019-04-06T17:22:33.839Z,17.15
2019-04-06T17:25:39.633Z,17.00
2019-04-06T17:28:35.703Z,16.98
2019-04-06T17:31:21.152Z,16.60
2019-04-06T17:34:08.533Z,16.47
2019-04-06T17:36:47.769Z,16.47
2019-04-06T17:39:34.930Z,16.13
2019-04-06T17:42:13.099Z,16.02
2019-04-06T17:45:07.342Z,15.88
2019-04-06T17:47:45.220Z,15.79
2019-04-06T17:50:28.124Z,15.62
2019-04-06T17:53:07.338Z,15.68
2019-04-06T17:55:54.039Z,15.55
2019-04-06T17:58:46.344Z,15.58
2019-04-06T18:01:33.033Z,15.41
2019-04-06T18:04:28.137Z,15.24
2019-04-06T18:07:13.092Z,15.11
2019-04-06T18:09:49.196Z,14.91
2019-04-06T18:12:28.754Z,14.81
2019-04-06T18:14:57.481Z,14.70
2019-04-06T18:17:26.569Z,14.69
2019-04-06T18:19:56.389Z,14.70
2019-04-06T18:22:25.137Z,14.56
2019-04-06T18:24:54.377Z,14.59
2019-04-06T18:27:23.277Z,14.64
2019-04-06T18:29:52.263Z,14.56
2019-04-06T18:32:39.996Z,14.43
2019-04-06T18:35:10.076Z,14.37
2019-04-06T18:37:46.089Z,14.29
2019-04-06T18:40:24.885Z,14.14
2019-04-06T18:42:54.418Z,14.10
2019-04-06T18:45:23.324Z,14.04
2019-04-06T18:47:52.288Z,13.92
2019-04-06T18:50:21.071Z,13.89
2019-04-06T18:52:49.980Z,13.87
2019-04-06T18:55:18.860Z,13.80
2019-04-06T18:57:47.853Z,13.78
2019-04-06T19:00:17.109Z,13.68
2019-04-06T19:02:46.297Z,13.58
2019-04-06T19:05:15.220Z,13.52
2019-04-06T19:07:44.212Z,13.50
2019-04-06T19:10:13.352Z,13.51
2019-04-06T19:12:42.850Z,13.42
2019-04-06T19:15:11.610Z,13.37
2019-04-06T19:17:40.269Z,13.37
2019-04-06T19:20:09.259Z,13.32
2019-04-06T19:22:37.892Z,13.30
2019-04-06T19:25:07.460Z,13.22
2019-04-06T19:27:36.389Z,13.17
2019-04-06T19:30:07.709Z,13.13
2019-04-06T19:32:36.910Z,13.05
2019-04-06T19:35:07.712Z,13.05
2019-04-06T19:37:36.602Z,13.04
2019-04-06T19:40:07.241Z,12.96
2019-04-06T19:42:36.418Z,12.81
2019-04-06T19:45:06.659Z,12.81
2019-04-06T19:47:35.815Z,12.71
2019-04-06T19:50:06.575Z,12.84
2019-04-06T19:52:35.914Z,12.71
2019-04-06T19:55:05.628Z,12.61
2019-04-06T19:57:35.151Z,12.60
2019-04-06T20:00:05.014Z,12.59
2019-04-06T20:02:33.814Z,12.63
2019-04-06T20:05:02.862Z,12.49
2019-04-06T20:07:31.668Z,12.52
2019-04-06T20:10:00.817Z,12.50
2019-04-06T20:12:29.824Z,12.62
2019-04-06T20:14:58.697Z,12.36
2019-04-06T20:17:27.686Z,12.21
2019-04-06T20:19:56.722Z,12.25
2019-04-06T20:22:25.380Z,12.16
2019-04-06T20:24:54.605Z,12.10
2019-04-06T20:27:23.494Z,12.01
2019-04-06T20:29:52.349Z,12.13
2019-04-06T20:32:21.345Z,12.02
2019-04-06T20:34:50.465Z,11.96
2019-04-06T20:37:19.208Z,11.86
2019-04-06T20:39:47.890Z,11.74
2019-04-06T20:42:16.660Z,11.74
2019-04-06T20:44:45.316Z,11.68
2019-04-06T20:47:14.824Z,11.68
2019-04-06T20:49:44.065Z,11.61
2019-04-06T20:52:13.048Z,11.49
2019-04-06T20:54:41.939Z,11.44
2019-04-06T20:57:10.945Z,11.29
2019-04-06T20:59:39.578Z,11.23
2019-04-06T21:02:08.293Z,11.29
2019-04-06T21:04:37.607Z,11.31
2019-04-06T21:07:06.721Z,11.04
2019-04-06T21:09:36.071Z,10.98
2019-04-06T21:12:05.717Z,10.88
2019-04-06T21:14:35.143Z,10.77
2019-04-06T21:17:04.223Z,10.86
2019-04-06T21:19:33.998Z,10.68
2019-04-06T21:22:02.656Z,10.71
2019-04-06T21:24:31.917Z,10.84
2019-04-06T21:27:00.557Z,10.75
2019-04-06T21:29:29.659Z,10.77
2019-04-06T21:31:59.419Z,10.59
2019-04-06T21:34:29.305Z,10.65
2019-04-06T21:36:58.493Z,10.51
2019-04-06T21:39:27.950Z,10.51
2019-04-06T21:41:58.087Z,10.45
2019-04-06T21:44:27.670Z,10.36
2019-04-06T21:46:57.413Z,10.29
2019-04-06T21:49:26.699Z,10.33
2019-04-06T21:51:55.415Z,10.27
2019-04-06T21:54:24.101Z,10.36
2019-04-06T21:56:53.476Z,10.39
2019-04-06T21:59:22.538Z,10.35
2019-04-06T22:01:51.383Z,10.41
2019-04-06T22:04:26.025Z,10.45
2019-04-06T22:06:50.745Z,10.39
2019-04-06T22:09:19.403Z,10.57
2019-04-06T22:11:48.307Z,10.52
2019-04-06T22:14:17.718Z,10.48
2019-04-06T22:16:46.352Z,10.47
2019-04-06T22:19:15.003Z,10.43
2019-04-06T22:21:44.045Z,10.41
2019-04-06T22:24:12.619Z,10.42
2019-04-06T22:26:41.303Z,10.38
2019-04-06T22:29:09.934Z,10.49
2019-04-06T22:31:38.947Z,10.54
2019-04-06T22:34:08.141Z,10.48
2019-04-06T22:36:37.421Z,10.49
2019-04-06T22:39:07.357Z,10.49
2019-04-06T22:41:36.447Z,10.24
2019-04-06T22:44:05.827Z,10.07
2019-04-06T22:46:35.336Z,9.71
2019-04-06T22:49:03.956Z,9.72
2019-04-06T22:51:32.998Z,9.72
2019-04-06T22:54:02.523Z,9.60
2019-04-06T22:56:31.849Z,9.54
2019-04-06T22:59:00.673Z,9.44
2019-04-06T23:01:31.185Z,9.17
2019-04-06T23:04:21.670Z,9.18
2019-04-06T23:07:00.689Z,9.27
2019-04-06T23:09:30.368Z,9.23
2019-04-06T23:12:00.689Z,9.25
2019-04-06T23:14:29.619Z,9.39
2019-04-06T23:16:58.668Z,9.36
2019-04-06T23:19:28.137Z,9.19
2019-04-06T23:21:56.834Z,9.35
2019-04-06T23:24:25.976Z,9.40
2019-04-06T23:26:54.896Z,9.33
2019-04-06T23:29:23.580Z,9.37
2019-04-06T23:31:53.122Z,9.17
2019-04-06T23:34:21.960Z,9.13
2019-04-06T23:36:51.178Z,9.16
2019-04-06T23:39:20.170Z,9.14
2019-04-06T23:41:48.805Z,9.12
2019-04-06T23:44:18.478Z,9.22
2019-04-06T23:46:47.210Z,9.25
2019-04-06T23:49:16.837Z,9.11
2019-04-06T23:51:45.579Z,9.01
2019-04-06T23:54:14.852Z,8.86
2019-04-06T23:56:43.468Z,8.80
2019-04-06T23:59:12.578Z,8.80
